sensor_id;sensor_type;location;lat;lon;timestamp;P1;durP1;ratioP1;P2;durP2;ratioP2
4808;SDS011;2418;49.930;8.606;2022-09-27T00:00:56;1.90;;;1.80;;
4808;SDS011;2418;49.930;8.606;2022-09-27T00:03:22;1.67;;;1.67;;
4808;SDS011;2418;49.930;8.606;2022-09-27T00:05:48;2.10;;;2.00;;
4808;SDS011;2418;49.930;8.606;2022-09-27T00:08:14;1.98;;;1.75;;
4808;SDS011;2418;49.930;8.606;2022-09-27T00:10:40;1.60;;;1.60;;
4808;SDS011;2418;49.930;8.606;2022-09-27T00:13:06;1.60;;;1.60;;
4808;SDS011;2418;49.930;8.606;2022-09-27T00:15:32;2.27;;;2.07;;
4808;SDS011;2418;49.930;8.606;2022-09-27T00:17:58;1.60;;;1.50;;
4808;SDS011;2418;49.930;8.606;2022-09-27T00:20:23;1.80;;;1.80;;
4808;SDS011;2418;49.930;8.606;2022-09-27T00:22:50;1.50;;;1.50;;
4808;SDS011;2418;49.930;8.606;2022-09-27T00:25:16;2.10;;;1.90;;
4808;SDS011;2418;49.930;8.606;2022-09-27T00:27:42;1.80;;;1.70;;
4808;SDS011;2418;49.930;8.606;2022-09-27T00:30:08;1.63;;;1.63;;
4808;SDS011;2418;49.930;8.606;2022-09-27T00:32:34;1.90;;;1.80;;
4808;SDS011;2418;49.930;8.606;2022-09-27T00:35:00;1.90;;;1.80;;
4808;SDS011;2418;49.930;8.606;2022-09-27T00:37:26;1.70;;;1.60;;
4808;SDS011;2418;49.930;8.606;2022-09-27T00:39:53;2.30;;;1.50;;
4808;SDS011;2418;49.930;8.606;2022-09-27T00:42:19;1.70;;;1.70;;
4808;SDS011;2418;49.930;8.606;2022-09-27T00:44:54;2.30;;;1.80;;
4808;SDS011;2418;49.930;8.606;2022-09-27T00:49:54;2.33;;;2.13;;
4808;SDS011;2418;49.930;8.606;2022-09-27T00:52:26;1.80;;;1.70;;
4808;SDS011;2418;49.930;8.606;2022-09-27T00:54:54;1.88;;;1.77;;
4808;SDS011;2418;49.930;8.606;2022-09-27T00:57:23;2.03;;;1.92;;
4808;SDS011;2418;49.930;8.606;2022-09-27T01:00:03;2.20;;;2.00;;
4808;SDS011;2418;49.930;8.606;2022-09-27T01:02:29;1.90;;;1.80;;
4808;SDS011;2418;49.930;8.606;2022-09-27T01:04:56;2.50;;;2.30;;
4808;SDS011;2418;49.930;8.606;2022-09-27T01:07:22;3.70;;;2.40;;
4808;SDS011;2418;49.930;8.606;2022-09-27T01:09:48;2.70;;;2.27;;
4808;SDS011;2418;49.930;8.606;2022-09-27T01:15:00;3.03;;;2.92;;
4808;SDS011;2418;49.930;8.606;2022-09-27T01:22:39;2.50;;;2.40;;
4808;SDS011;2418;49.930;8.606;2022-09-27T01:30:16;3.30;;;3.10;;
4808;SDS011;2418;49.930;8.606;2022-09-27T01:32:48;2.90;;;2.70;;
4808;SDS011;2418;49.930;8.606;2022-09-27T01:35:24;3.50;;;3.30;;
4808;SDS011;2418;49.930;8.606;2022-09-27T01:40:30;3.10;;;3.00;;
4808;SDS011;2418;49.930;8.606;2022-09-27T01:42:59;3.35;;;3.10;;
4808;SDS011;2418;49.930;8.606;2022-09-27T01:45:29;3.42;;;3.13;;
4808;SDS011;2418;49.930;8.606;2022-09-27T01:47:57;3.10;;;3.00;;
4808;SDS011;2418;49.930;8.606;2022-09-27T01:50:31;3.20;;;2.80;;
4808;SDS011;2418;49.930;8.606;2022-09-27T01:53:00;2.85;;;2.75;;
4808;SDS011;2418;49.930;8.606;2022-09-27T01:55:30;3.20;;;2.90;;
4808;SDS011;2418;49.930;8.606;2022-09-27T01:57:58;2.92;;;2.72;;
4808;SDS011;2418;49.930;8.606;2022-09-27T02:00:25;3.20;;;2.90;;
4808;SDS011;2418;49.930;8.606;2022-09-27T02:02:54;2.80;;;2.70;;
4808;SDS011;2418;49.930;8.606;2022-09-27T02:05:20;4.33;;;3.10;;
4808;SDS011;2418;49.930;8.606;2022-09-27T02:10:20;3.45;;;3.00;;
4808;SDS011;2418;49.930;8.606;2022-09-27T02:12:51;2.50;;;2.40;;
4808;SDS011;2418;49.930;8.606;2022-09-27T02:15:21;3.27;;;2.97;;
4808;SDS011;2418;49.930;8.606;2022-09-27T02:18:06;2.78;;;2.50;;
4808;SDS011;2418;49.930;8.606;2022-09-27T02:20:39;2.50;;;2.40;;
4808;SDS011;2418;49.930;8.606;2022-09-27T02:23:52;2.20;;;2.10;;
4808;SDS011;2418;49.930;8.606;2022-09-27T02:25:56;3.50;;;2.40;;
4808;SDS011;2418;49.930;8.606;2022-09-27T02:30:50;4.27;;;2.50;;
4808;SDS011;2418;49.930;8.606;2022-09-27T02:33:17;6.82;;;2.88;;
4808;SDS011;2418;49.930;8.606;2022-09-27T02:35:44;4.00;;;2.50;;
4808;SDS011;2418;49.930;8.606;2022-09-27T02:38:10;11.63;;;2.57;;
4808;SDS011;2418;49.930;8.606;2022-09-27T02:40:41;4.20;;;2.80;;
4808;SDS011;2418;49.930;8.606;2022-09-27T02:43:07;3.60;;;2.78;;
4808;SDS011;2418;49.930;8.606;2022-09-27T02:48:10;5.20;;;1.90;;
4808;SDS011;2418;49.930;8.606;2022-09-27T02:50:47;4.90;;;2.20;;
4808;SDS011;2418;49.930;8.606;2022-09-27T02:58:38;5.28;;;1.90;;
4808;SDS011;2418;49.930;8.606;2022-09-27T03:01:12;2.80;;;1.90;;
4808;SDS011;2418;49.930;8.606;2022-09-27T03:06:19;1.98;;;1.77;;
4808;SDS011;2418;49.930;8.606;2022-09-27T03:08:46;3.55;;;2.20;;
4808;SDS011;2418;49.930;8.606;2022-09-27T03:11:13;2.28;;;1.35;;
4808;SDS011;2418;49.930;8.606;2022-09-27T03:13:39;1.48;;;1.48;;
4808;SDS011;2418;49.930;8.606;2022-09-27T03:16:05;1.40;;;1.30;;
4808;SDS011;2418;49.930;8.606;2022-09-27T03:18:31;1.77;;;1.67;;
4808;SDS011;2418;49.930;8.606;2022-09-27T03:20:57;4.50;;;1.20;;
4808;SDS011;2418;49.930;8.606;2022-09-27T03:23:24;1.30;;;1.20;;
4808;SDS011;2418;49.930;8.606;2022-09-27T03:25:50;2.90;;;1.00;;
4808;SDS011;2418;49.930;8.606;2022-09-27T03:28:16;1.00;;;1.00;;
4808;SDS011;2418;49.930;8.606;2022-09-27T03:30:46;1.02;;;1.00;;
4808;SDS011;2418;49.930;8.606;2022-09-27T03:33:12;1.60;;;1.30;;
4808;SDS011;2418;49.930;8.606;2022-09-27T03:35:38;3.30;;;0.90;;
4808;SDS011;2418;49.930;8.606;2022-09-27T03:38:04;2.20;;;1.10;;
4808;SDS011;2418;49.930;8.606;2022-09-27T03:40:31;1.13;;;0.95;;
4808;SDS011;2418;49.930;8.606;2022-09-27T03:42:57;2.55;;;1.20;;
4808;SDS011;2418;49.930;8.606;2022-09-27T03:45:23;0.80;;;0.80;;
4808;SDS011;2418;49.930;8.606;2022-09-27T03:47:49;2.00;;;0.80;;
4808;SDS011;2418;49.930;8.606;2022-09-27T03:50:15;0.65;;;0.65;;
4808;SDS011;2418;49.930;8.606;2022-09-27T03:52:41;3.30;;;1.13;;
4808;SDS011;2418;49.930;8.606;2022-09-27T03:55:08;1.20;;;0.80;;
4808;SDS011;2418;49.930;8.606;2022-09-27T03:57:34;1.02;;;1.02;;
4808;SDS011;2418;49.930;8.606;2022-09-27T04:00:00;1.73;;;1.00;;
4808;SDS011;2418;49.930;8.606;2022-09-27T04:02:26;1.30;;;1.20;;
4808;SDS011;2418;49.930;8.606;2022-09-27T04:04:52;1.27;;;0.98;;
4808;SDS011;2418;49.930;8.606;2022-09-27T04:07:18;1.17;;;1.17;;
4808;SDS011;2418;49.930;8.606;2022-09-27T04:09:44;0.98;;;0.98;;
4808;SDS011;2418;49.930;8.606;2022-09-27T04:12:11;1.70;;;0.60;;
4808;SDS011;2418;49.930;8.606;2022-09-27T04:14:37;0.95;;;0.95;;
4808;SDS011;2418;49.930;8.606;2022-09-27T04:17:03;0.77;;;0.77;;
4808;SDS011;2418;49.930;8.606;2022-09-27T04:19:29;1.70;;;0.60;;
4808;SDS011;2418;49.930;8.606;2022-09-27T04:21:55;0.60;;;0.60;;
4808;SDS011;2418;49.930;8.606;2022-09-27T04:24:21;1.80;;;0.70;;
4808;SDS011;2418;49.930;8.606;2022-09-27T04:26:47;2.20;;;0.70;;
4808;SDS011;2418;49.930;8.606;2022-09-27T04:29:13;0.70;;;0.70;;
4808;SDS011;2418;49.930;8.606;2022-09-27T04:31:40;2.00;;;0.50;;
4808;SDS011;2418;49.930;8.606;2022-09-27T04:34:08;0.70;;;0.70;;
4808;SDS011;2418;49.930;8.606;2022-09-27T04:36:34;1.20;;;0.70;;
4808;SDS011;2418;49.930;8.606;2022-09-27T04:39:01;0.50;;;0.50;;
4808;SDS011;2418;49.930;8.606;2022-09-27T04:41:28;1.17;;;0.70;;
4808;SDS011;2418;49.930;8.606;2022-09-27T04:43:54;1.10;;;0.60;;
4808;SDS011;2418;49.930;8.606;2022-09-27T04:46:20;0.90;;;0.50;;
4808;SDS011;2418;49.930;8.606;2022-09-27T04:48:46;1.60;;;0.50;;
4808;SDS011;2418;49.930;8.606;2022-09-27T04:51:13;0.60;;;0.55;;
4808;SDS011;2418;49.930;8.606;2022-09-27T04:53:45;1.00;;;0.50;;
4808;SDS011;2418;49.930;8.606;2022-09-27T04:56:12;1.00;;;0.60;;
4808;SDS011;2418;49.930;8.606;2022-09-27T04:58:38;0.70;;;0.60;;
4808;SDS011;2418;49.930;8.606;2022-09-27T05:01:04;0.80;;;0.70;;
4808;SDS011;2418;49.930;8.606;2022-09-27T05:03:31;1.90;;;0.60;;
4808;SDS011;2418;49.930;8.606;2022-09-27T05:05:57;2.30;;;0.60;;
4808;SDS011;2418;49.930;8.606;2022-09-27T05:08:24;1.60;;;0.70;;
4808;SDS011;2418;49.930;8.606;2022-09-27T05:10:50;2.50;;;0.77;;
4808;SDS011;2418;49.930;8.606;2022-09-27T05:13:16;4.20;;;1.00;;
4808;SDS011;2418;49.930;8.606;2022-09-27T05:15:42;2.03;;;0.80;;
4808;SDS011;2418;49.930;8.606;2022-09-27T05:18:08;2.10;;;0.80;;
4808;SDS011;2418;49.930;8.606;2022-09-27T05:20:35;3.08;;;1.08;;
4808;SDS011;2418;49.930;8.606;2022-09-27T05:23:02;1.60;;;0.60;;
4808;SDS011;2418;49.930;8.606;2022-09-27T05:25:31;2.30;;;0.90;;
4808;SDS011;2418;49.930;8.606;2022-09-27T05:27:57;1.98;;;0.70;;
4808;SDS011;2418;49.930;8.606;2022-09-27T05:30:24;1.50;;;0.80;;
4808;SDS011;2418;49.930;8.606;2022-09-27T05:32:51;1.00;;;0.80;;
4808;SDS011;2418;49.930;8.606;2022-09-27T05:35:17;1.30;;;0.90;;
4808;SDS011;2418;49.930;8.606;2022-09-27T05:37:50;2.10;;;0.63;;
4808;SDS011;2418;49.930;8.606;2022-09-27T05:40:16;1.88;;;0.88;;
4808;SDS011;2418;49.930;8.606;2022-09-27T05:42:42;1.13;;;1.02;;
4808;SDS011;2418;49.930;8.606;2022-09-27T05:45:08;1.80;;;1.70;;
4808;SDS011;2418;49.930;8.606;2022-09-27T05:47:34;2.80;;;1.27;;
4808;SDS011;2418;49.930;8.606;2022-09-27T05:50:00;2.03;;;1.90;;
4808;SDS011;2418;49.930;8.606;2022-09-27T05:52:26;2.78;;;2.58;;
4808;SDS011;2418;49.930;8.606;2022-09-27T05:54:52;3.30;;;2.60;;
4808;SDS011;2418;49.930;8.606;2022-09-27T05:57:18;2.30;;;1.47;;
4808;SDS011;2418;49.930;8.606;2022-09-27T05:59:44;3.70;;;1.63;;
4808;SDS011;2418;49.930;8.606;2022-09-27T06:02:11;6.80;;;4.97;;
4808;SDS011;2418;49.930;8.606;2022-09-27T06:04:37;6.50;;;4.63;;
4808;SDS011;2418;49.930;8.606;2022-09-27T06:07:03;1.83;;;1.73;;
4808;SDS011;2418;49.930;8.606;2022-09-27T06:09:29;0.68;;;0.68;;
4808;SDS011;2418;49.930;8.606;2022-09-27T06:11:55;1.40;;;0.60;;
4808;SDS011;2418;49.930;8.606;2022-09-27T06:14:21;0.70;;;0.70;;
4808;SDS011;2418;49.930;8.606;2022-09-27T06:16:47;0.98;;;0.80;;
4808;SDS011;2418;49.930;8.606;2022-09-27T06:19:13;2.30;;;0.90;;
4808;SDS011;2418;49.930;8.606;2022-09-27T06:21:39;1.00;;;1.00;;
4808;SDS011;2418;49.930;8.606;2022-09-27T06:24:05;1.30;;;1.20;;
4808;SDS011;2418;49.930;8.606;2022-09-27T06:26:31;1.10;;;1.00;;
4808;SDS011;2418;49.930;8.606;2022-09-27T06:28:57;0.82;;;0.80;;
4808;SDS011;2418;49.930;8.606;2022-09-27T06:31:23;2.00;;;0.90;;
4808;SDS011;2418;49.930;8.606;2022-09-27T06:33:49;1.90;;;0.70;;
4808;SDS011;2418;49.930;8.606;2022-09-27T06:36:15;0.90;;;0.90;;
4808;SDS011;2418;49.930;8.606;2022-09-27T06:38:41;1.50;;;0.50;;
4808;SDS011;2418;49.930;8.606;2022-09-27T06:41:10;0.60;;;0.60;;
4808;SDS011;2418;49.930;8.606;2022-09-27T06:43:37;0.90;;;0.90;;
4808;SDS011;2418;49.930;8.606;2022-09-27T06:46:03;2.67;;;0.60;;
4808;SDS011;2418;49.930;8.606;2022-09-27T06:48:30;0.70;;;0.70;;
4808;SDS011;2418;49.930;8.606;2022-09-27T06:50:56;0.70;;;0.70;;
4808;SDS011;2418;49.930;8.606;2022-09-27T06:53:22;0.80;;;0.80;;
4808;SDS011;2418;49.930;8.606;2022-09-27T06:55:48;0.50;;;0.50;;
4808;SDS011;2418;49.930;8.606;2022-09-27T06:58:15;0.50;;;0.50;;
4808;SDS011;2418;49.930;8.606;2022-09-27T07:01:00;3.80;;;0.60;;
4808;SDS011;2418;49.930;8.606;2022-09-27T07:03:26;1.00;;;0.60;;
4808;SDS011;2418;49.930;8.606;2022-09-27T07:05:56;0.50;;;0.50;;
4808;SDS011;2418;49.930;8.606;2022-09-27T07:08:23;0.50;;;0.50;;
4808;SDS011;2418;49.930;8.606;2022-09-27T07:10:50;0.60;;;0.60;;
4808;SDS011;2418;49.930;8.606;2022-09-27T07:13:17;0.50;;;0.50;;
4808;SDS011;2418;49.930;8.606;2022-09-27T07:15:43;0.50;;;0.50;;
4808;SDS011;2418;49.930;8.606;2022-09-27T07:18:09;0.50;;;0.50;;
4808;SDS011;2418;49.930;8.606;2022-09-27T07:20:35;1.30;;;0.50;;
4808;SDS011;2418;49.930;8.606;2022-09-27T07:23:02;0.70;;;0.60;;
4808;SDS011;2418;49.930;8.606;2022-09-27T07:25:29;2.00;;;0.60;;
4808;SDS011;2418;49.930;8.606;2022-09-27T07:27:59;0.60;;;0.60;;
4808;SDS011;2418;49.930;8.606;2022-09-27T07:30:26;0.60;;;0.60;;
4808;SDS011;2418;49.930;8.606;2022-09-27T07:32:58;0.50;;;0.50;;
4808;SDS011;2418;49.930;8.606;2022-09-27T07:35:25;0.50;;;0.50;;
4808;SDS011;2418;49.930;8.606;2022-09-27T07:37:51;0.93;;;0.50;;
4808;SDS011;2418;49.930;8.606;2022-09-27T07:40:17;0.90;;;0.60;;
4808;SDS011;2418;49.930;8.606;2022-09-27T07:42:43;1.20;;;0.40;;
4808;SDS011;2418;49.930;8.606;2022-09-27T07:45:10;1.20;;;0.50;;
4808;SDS011;2418;49.930;8.606;2022-09-27T07:47:39;0.50;;;0.50;;
4808;SDS011;2418;49.930;8.606;2022-09-27T07:50:06;3.60;;;0.43;;
4808;SDS011;2418;49.930;8.606;2022-09-27T07:52:40;0.50;;;0.50;;
4808;SDS011;2418;49.930;8.606;2022-09-27T07:55:07;1.00;;;0.70;;
4808;SDS011;2418;49.930;8.606;2022-09-27T07:57:33;0.90;;;0.70;;
4808;SDS011;2418;49.930;8.606;2022-09-27T07:59:59;0.90;;;0.60;;
4808;SDS011;2418;49.930;8.606;2022-09-27T08:02:25;1.60;;;0.75;;
4808;SDS011;2418;49.930;8.606;2022-09-27T08:04:51;1.52;;;0.73;;
4808;SDS011;2418;49.930;8.606;2022-09-27T08:07:17;1.70;;;0.60;;
4808;SDS011;2418;49.930;8.606;2022-09-27T08:09:43;1.20;;;0.60;;
4808;SDS011;2418;49.930;8.606;2022-09-27T08:12:09;0.40;;;0.40;;
4808;SDS011;2418;49.930;8.606;2022-09-27T08:14:35;1.10;;;1.10;;
4808;SDS011;2418;49.930;8.606;2022-09-27T08:17:00;0.70;;;0.70;;
4808;SDS011;2418;49.930;8.606;2022-09-27T08:19:26;0.50;;;0.50;;
4808;SDS011;2418;49.930;8.606;2022-09-27T08:21:53;1.40;;;0.60;;
4808;SDS011;2418;49.930;8.606;2022-09-27T08:24:19;0.73;;;0.68;;
4808;SDS011;2418;49.930;8.606;2022-09-27T08:26:45;0.50;;;0.50;;
4808;SDS011;2418;49.930;8.606;2022-09-27T08:29:11;0.60;;;0.60;;
4808;SDS011;2418;49.930;8.606;2022-09-27T08:31:37;2.60;;;0.73;;
4808;SDS011;2418;49.930;8.606;2022-09-27T08:34:03;0.60;;;0.60;;
4808;SDS011;2418;49.930;8.606;2022-09-27T08:36:29;1.80;;;0.52;;
4808;SDS011;2418;49.930;8.606;2022-09-27T08:38:56;2.10;;;0.90;;
4808;SDS011;2418;49.930;8.606;2022-09-27T08:41:59;0.50;;;0.50;;
4808;SDS011;2418;49.930;8.606;2022-09-27T08:46:57;2.47;;;0.75;;
4808;SDS011;2418;49.930;8.606;2022-09-27T08:51:55;1.30;;;0.60;;
4808;SDS011;2418;49.930;8.606;2022-09-27T08:54:23;0.70;;;0.50;;
4808;SDS011;2418;49.930;8.606;2022-09-27T08:56:54;0.45;;;0.45;;
4808;SDS011;2418;49.930;8.606;2022-09-27T08:59:24;1.60;;;0.60;;
4808;SDS011;2418;49.930;8.606;2022-09-27T09:01:52;0.80;;;0.80;;
4808;SDS011;2418;49.930;8.606;2022-09-27T09:04:34;2.22;;;1.10;;
4808;SDS011;2418;49.930;8.606;2022-09-27T09:07:19;1.70;;;0.60;;
4808;SDS011;2418;49.930;8.606;2022-09-27T09:09:51;1.10;;;0.50;;
4808;SDS011;2418;49.930;8.606;2022-09-27T09:23:02;0.90;;;0.40;;
4808;SDS011;2418;49.930;8.606;2022-09-27T09:25:35;1.20;;;0.40;;
4808;SDS011;2418;49.930;8.606;2022-09-27T09:28:10;0.50;;;0.50;;
4808;SDS011;2418;49.930;8.606;2022-09-27T09:33:18;0.70;;;0.70;;
4808;SDS011;2418;49.930;8.606;2022-09-27T09:35:48;1.60;;;0.55;;
4808;SDS011;2418;49.930;8.606;2022-09-27T09:38:20;0.63;;;0.50;;
4808;SDS011;2418;49.930;8.606;2022-09-27T09:40:51;0.77;;;0.50;;
4808;SDS011;2418;49.930;8.606;2022-09-27T09:43:22;0.60;;;0.60;;
4808;SDS011;2418;49.930;8.606;2022-09-27T09:45:52;0.40;;;0.40;;
4808;SDS011;2418;49.930;8.606;2022-09-27T09:48:24;1.10;;;0.55;;
4808;SDS011;2418;49.930;8.606;2022-09-27T09:50:53;0.55;;;0.55;;
4808;SDS011;2418;49.930;8.606;2022-09-27T09:59:01;5.10;;;0.60;;
4808;SDS011;2418;49.930;8.606;2022-09-27T10:01:32;2.30;;;0.40;;
4808;SDS011;2418;49.930;8.606;2022-09-27T10:03:59;0.50;;;0.50;;
4808;SDS011;2418;49.930;8.606;2022-09-27T10:06:25;0.50;;;0.50;;
4808;SDS011;2418;49.930;8.606;2022-09-27T10:08:52;0.50;;;0.50;;
4808;SDS011;2418;49.930;8.606;2022-09-27T10:11:27;1.20;;;0.50;;
4808;SDS011;2418;49.930;8.606;2022-09-27T10:13:55;2.90;;;0.50;;
4808;SDS011;2418;49.930;8.606;2022-09-27T10:16:21;0.70;;;0.50;;
4808;SDS011;2418;49.930;8.606;2022-09-27T10:18:49;0.95;;;0.60;;
4808;SDS011;2418;49.930;8.606;2022-09-27T10:26:32;0.50;;;0.50;;
4808;SDS011;2418;49.930;8.606;2022-09-27T10:29:12;0.60;;;0.60;;
4808;SDS011;2418;49.930;8.606;2022-09-27T10:31:39;0.50;;;0.50;;
4808;SDS011;2418;49.930;8.606;2022-09-27T10:34:14;0.40;;;0.40;;
4808;SDS011;2418;49.930;8.606;2022-09-27T10:36:41;0.40;;;0.40;;
4808;SDS011;2418;49.930;8.606;2022-09-27T10:39:09;0.40;;;0.40;;
4808;SDS011;2418;49.930;8.606;2022-09-27T10:41:44;0.80;;;0.50;;
4808;SDS011;2418;49.930;8.606;2022-09-27T10:46:43;1.30;;;0.40;;
4808;SDS011;2418;49.930;8.606;2022-09-27T10:51:36;0.70;;;0.60;;
4808;SDS011;2418;49.930;8.606;2022-09-27T10:54:03;0.60;;;0.60;;
4808;SDS011;2418;49.930;8.606;2022-09-27T10:56:30;0.40;;;0.40;;
4808;SDS011;2418;49.930;8.606;2022-09-27T10:58:57;0.50;;;0.50;;
4808;SDS011;2418;49.930;8.606;2022-09-27T11:01:38;0.50;;;0.50;;
4808;SDS011;2418;49.930;8.606;2022-09-27T11:04:05;0.50;;;0.50;;
4808;SDS011;2418;49.930;8.606;2022-09-27T11:06:32;1.60;;;0.47;;
4808;SDS011;2418;49.930;8.606;2022-09-27T11:09:43;2.10;;;1.07;;
4808;SDS011;2418;49.930;8.606;2022-09-27T11:12:05;8.20;;;0.60;;
4808;SDS011;2418;49.930;8.606;2022-09-27T11:14:34;8.02;;;1.05;;
4808;SDS011;2418;49.930;8.606;2022-09-27T11:17:12;0.80;;;0.60;;
4808;SDS011;2418;49.930;8.606;2022-09-27T11:19:47;0.60;;;0.60;;
4808;SDS011;2418;49.930;8.606;2022-09-27T11:22:21;0.50;;;0.50;;
4808;SDS011;2418;49.930;8.606;2022-09-27T11:27:22;0.75;;;0.65;;
4808;SDS011;2418;49.930;8.606;2022-09-27T11:32:31;2.00;;;0.90;;
4808;SDS011;2418;49.930;8.606;2022-09-27T11:37:35;0.80;;;0.80;;
4808;SDS011;2418;49.930;8.606;2022-09-27T11:42:54;1.30;;;0.80;;
4808;SDS011;2418;49.930;8.606;2022-09-27T11:45:39;0.60;;;0.60;;
4808;SDS011;2418;49.930;8.606;2022-09-27T11:48:24;0.90;;;0.80;;
4808;SDS011;2418;49.930;8.606;2022-09-27T11:54:03;1.40;;;0.90;;
4808;SDS011;2418;49.930;8.606;2022-09-27T11:57:26;1.00;;;0.80;;
4808;SDS011;2418;49.930;8.606;2022-09-27T12:02:11;6.00;;;0.80;;
4808;SDS011;2418;49.930;8.606;2022-09-27T12:09:46;1.02;;;1.02;;
4808;SDS011;2418;49.930;8.606;2022-09-27T12:12:21;2.83;;;0.80;;
4808;SDS011;2418;49.930;8.606;2022-09-27T12:14:49;1.17;;;1.08;;
4808;SDS011;2418;49.930;8.606;2022-09-27T12:17:17;1.70;;;1.60;;
4808;SDS011;2418;49.930;8.606;2022-09-27T12:19:45;1.67;;;0.90;;
4808;SDS011;2418;49.930;8.606;2022-09-27T12:22:15;1.52;;;0.90;;
4808;SDS011;2418;49.930;8.606;2022-09-27T12:24:43;0.80;;;0.80;;
4808;SDS011;2418;49.930;8.606;2022-09-27T12:27:22;2.10;;;1.02;;
4808;SDS011;2418;49.930;8.606;2022-09-27T12:29:50;3.30;;;1.27;;
4808;SDS011;2418;49.930;8.606;2022-09-27T12:32:24;7.30;;;1.20;;
4808;SDS011;2418;49.930;8.606;2022-09-27T12:37:45;1.48;;;1.20;;
4808;SDS011;2418;49.930;8.606;2022-09-27T12:40:15;4.20;;;1.30;;
4808;SDS011;2418;49.930;8.606;2022-09-27T12:42:43;1.50;;;1.40;;
4808;SDS011;2418;49.930;8.606;2022-09-27T12:45:13;1.70;;;1.27;;
4808;SDS011;2418;49.930;8.606;2022-09-27T12:50:44;3.83;;;1.30;;
4808;SDS011;2418;49.930;8.606;2022-09-27T12:53:16;2.17;;;1.13;;
4808;SDS011;2418;49.930;8.606;2022-09-27T13:00:46;0.70;;;0.70;;
4808;SDS011;2418;49.930;8.606;2022-09-27T13:13:47;2.40;;;1.00;;
4808;SDS011;2418;49.930;8.606;2022-09-27T13:16:15;0.40;;;0.40;;
4808;SDS011;2418;49.930;8.606;2022-09-27T13:18:49;1.60;;;0.80;;
4808;SDS011;2418;49.930;8.606;2022-09-27T13:21:52;2.10;;;1.08;;
4808;SDS011;2418;49.930;8.606;2022-09-27T13:26:55;2.40;;;2.20;;
4808;SDS011;2418;49.930;8.606;2022-09-27T13:29:26;1.30;;;1.30;;
4808;SDS011;2418;49.930;8.606;2022-09-27T13:39:47;0.70;;;0.70;;
4808;SDS011;2418;49.930;8.606;2022-09-27T13:42:18;0.82;;;0.82;;
4808;SDS011;2418;49.930;8.606;2022-09-27T13:47:29;2.30;;;0.60;;
4808;SDS011;2418;49.930;8.606;2022-09-27T13:50:01;1.00;;;1.00;;
4808;SDS011;2418;49.930;8.606;2022-09-27T13:52:32;0.90;;;0.70;;
4808;SDS011;2418;49.930;8.606;2022-09-27T13:55:05;1.38;;;1.20;;
4808;SDS011;2418;49.930;8.606;2022-09-27T13:57:40;1.07;;;1.07;;
4808;SDS011;2418;49.930;8.606;2022-09-27T14:00:29;1.40;;;1.40;;
4808;SDS011;2418;49.930;8.606;2022-09-27T14:02:58;1.20;;;0.80;;
4808;SDS011;2418;49.930;8.606;2022-09-27T14:05:26;0.70;;;0.70;;
4808;SDS011;2418;49.930;8.606;2022-09-27T14:07:55;0.60;;;0.60;;
4808;SDS011;2418;49.930;8.606;2022-09-27T14:10:26;0.80;;;0.80;;
4808;SDS011;2418;49.930;8.606;2022-09-27T14:12:52;0.90;;;0.90;;
4808;SDS011;2418;49.930;8.606;2022-09-27T14:15:22;0.65;;;0.65;;
4808;SDS011;2418;49.930;8.606;2022-09-27T14:17:49;0.60;;;0.60;;
4808;SDS011;2418;49.930;8.606;2022-09-27T14:20:31;0.60;;;0.60;;
4808;SDS011;2418;49.930;8.606;2022-09-27T14:22:58;0.65;;;0.65;;
4808;SDS011;2418;49.930;8.606;2022-09-27T14:25:24;3.22;;;0.50;;
4808;SDS011;2418;49.930;8.606;2022-09-27T14:27:50;1.55;;;0.80;;
4808;SDS011;2418;49.930;8.606;2022-09-27T14:30:18;1.50;;;1.50;;
4808;SDS011;2418;49.930;8.606;2022-09-27T14:32:48;1.20;;;1.10;;
4808;SDS011;2418;49.930;8.606;2022-09-27T14:38:00;4.40;;;4.00;;
4808;SDS011;2418;49.930;8.606;2022-09-27T14:40:27;2.80;;;1.80;;
4808;SDS011;2418;49.930;8.606;2022-09-27T14:42:53;3.90;;;3.60;;
4808;SDS011;2418;49.930;8.606;2022-09-27T14:45:21;2.45;;;2.15;;
4808;SDS011;2418;49.930;8.606;2022-09-27T14:47:49;2.10;;;1.70;;
4808;SDS011;2418;49.930;8.606;2022-09-27T14:50:26;1.08;;;1.08;;
4808;SDS011;2418;49.930;8.606;2022-09-27T14:52:56;1.50;;;1.50;;
4808;SDS011;2418;49.930;8.606;2022-09-27T14:55:27;1.10;;;1.10;;
4808;SDS011;2418;49.930;8.606;2022-09-27T14:57:58;1.00;;;1.00;;
4808;SDS011;2418;49.930;8.606;2022-09-27T15:00:28;1.30;;;1.20;;
4808;SDS011;2418;49.930;8.606;2022-09-27T15:02:56;1.70;;;1.60;;
4808;SDS011;2418;49.930;8.606;2022-09-27T15:05:24;1.90;;;1.00;;
4808;SDS011;2418;49.930;8.606;2022-09-27T15:07:51;1.63;;;1.52;;
4808;SDS011;2418;49.930;8.606;2022-09-27T15:10:20;1.65;;;1.55;;
4808;SDS011;2418;49.930;8.606;2022-09-27T15:12:47;1.30;;;1.20;;
4808;SDS011;2418;49.930;8.606;2022-09-27T15:15:18;2.50;;;1.52;;
4808;SDS011;2418;49.930;8.606;2022-09-27T15:17:46;1.90;;;1.30;;
4808;SDS011;2418;49.930;8.606;2022-09-27T15:22:44;2.90;;;1.50;;
4808;SDS011;2418;49.930;8.606;2022-09-27T15:25:19;1.20;;;1.10;;
4808;SDS011;2418;49.930;8.606;2022-09-27T15:27:46;1.10;;;1.10;;
4808;SDS011;2418;49.930;8.606;2022-09-27T15:30:15;1.20;;;1.10;;
4808;SDS011;2418;49.930;8.606;2022-09-27T15:32:46;1.90;;;1.20;;
4808;SDS011;2418;49.930;8.606;2022-09-27T15:35:14;1.02;;;1.02;;
4808;SDS011;2418;49.930;8.606;2022-09-27T15:37:42;2.30;;;1.55;;
4808;SDS011;2418;49.930;8.606;2022-09-27T15:42:55;1.85;;;1.75;;
4808;SDS011;2418;49.930;8.606;2022-09-27T15:45:29;3.00;;;1.60;;
4808;SDS011;2418;49.930;8.606;2022-09-27T15:48:05;1.43;;;1.43;;
4808;SDS011;2418;49.930;8.606;2022-09-27T15:50:31;2.50;;;2.40;;
4808;SDS011;2418;49.930;8.606;2022-09-27T15:52:58;1.23;;;1.23;;
4808;SDS011;2418;49.930;8.606;2022-09-27T15:55:25;1.30;;;1.30;;
4808;SDS011;2418;49.930;8.606;2022-09-27T15:57:52;1.83;;;1.63;;
4808;SDS011;2418;49.930;8.606;2022-09-27T16:00:22;1.95;;;1.88;;
4808;SDS011;2418;49.930;8.606;2022-09-27T16:02:48;2.40;;;2.00;;
4808;SDS011;2418;49.930;8.606;2022-09-27T16:05:14;1.70;;;1.70;;
4808;SDS011;2418;49.930;8.606;2022-09-27T16:07:40;3.13;;;1.40;;
4808;SDS011;2418;49.930;8.606;2022-09-27T16:10:12;2.33;;;2.10;;
4808;SDS011;2418;49.930;8.606;2022-09-27T16:12:39;4.50;;;2.30;;
4808;SDS011;2418;49.930;8.606;2022-09-27T16:15:05;2.70;;;2.40;;
4808;SDS011;2418;49.930;8.606;2022-09-27T16:17:31;2.10;;;2.00;;
4808;SDS011;2418;49.930;8.606;2022-09-27T16:20:01;2.10;;;2.00;;
4808;SDS011;2418;49.930;8.606;2022-09-27T16:22:27;3.17;;;2.88;;
4808;SDS011;2418;49.930;8.606;2022-09-27T16:24:53;1.70;;;1.60;;
4808;SDS011;2418;49.930;8.606;2022-09-27T16:27:23;3.33;;;1.45;;
4808;SDS011;2418;49.930;8.606;2022-09-27T16:29:50;0.80;;;0.80;;
4808;SDS011;2418;49.930;8.606;2022-09-27T16:32:16;1.30;;;1.15;;
4808;SDS011;2418;49.930;8.606;2022-09-27T16:34:42;1.90;;;1.27;;
4808;SDS011;2418;49.930;8.606;2022-09-27T16:37:08;2.30;;;1.30;;
4808;SDS011;2418;49.930;8.606;2022-09-27T16:39:35;3.00;;;1.50;;
4808;SDS011;2418;49.930;8.606;2022-09-27T16:42:00;1.90;;;1.80;;
4808;SDS011;2418;49.930;8.606;2022-09-27T16:44:31;1.20;;;1.20;;
4808;SDS011;2418;49.930;8.606;2022-09-27T16:47:03;2.20;;;1.40;;
4808;SDS011;2418;49.930;8.606;2022-09-27T16:49:31;1.30;;;1.30;;
4808;SDS011;2418;49.930;8.606;2022-09-27T16:52:16;3.30;;;1.50;;
4808;SDS011;2418;49.930;8.606;2022-09-27T16:54:42;1.55;;;1.10;;
4808;SDS011;2418;49.930;8.606;2022-09-27T16:57:08;1.10;;;1.10;;
4808;SDS011;2418;49.930;8.606;2022-09-27T16:59:34;1.30;;;1.20;;
4808;SDS011;2418;49.930;8.606;2022-09-27T17:02:01;1.50;;;1.00;;
4808;SDS011;2418;49.930;8.606;2022-09-27T17:04:29;1.30;;;1.30;;
4808;SDS011;2418;49.930;8.606;2022-09-27T17:06:55;1.33;;;1.30;;
4808;SDS011;2418;49.930;8.606;2022-09-27T17:09:22;1.70;;;1.70;;
4808;SDS011;2418;49.930;8.606;2022-09-27T17:11:48;1.30;;;1.30;;
4808;SDS011;2418;49.930;8.606;2022-09-27T17:14:14;1.42;;;1.33;;
4808;SDS011;2418;49.930;8.606;2022-09-27T17:16:43;1.80;;;1.70;;
4808;SDS011;2418;49.930;8.606;2022-09-27T17:19:10;1.80;;;1.70;;
4808;SDS011;2418;49.930;8.606;2022-09-27T17:21:36;1.35;;;1.30;;
4808;SDS011;2418;49.930;8.606;2022-09-27T17:24:02;8.50;;;6.60;;
4808;SDS011;2418;49.930;8.606;2022-09-27T17:26:28;2.70;;;2.50;;
4808;SDS011;2418;49.930;8.606;2022-09-27T17:28:55;1.80;;;1.70;;
4808;SDS011;2418;49.930;8.606;2022-09-27T17:31:22;1.50;;;1.40;;
4808;SDS011;2418;49.930;8.606;2022-09-27T17:33:49;4.30;;;1.75;;
4808;SDS011;2418;49.930;8.606;2022-09-27T17:36:16;1.50;;;1.50;;